Landivisiau, France

5:17 PM CEST on July 13, 2014 (GMT +0200)
Landivisiau Navy (LFRJ) Elev 348 ft | 48.53 °N, 4.15 °W | Change Station

Current weather conditions updated 17 minutes ago

Mostly Cloudy
Mostly Cloudy
68 °F
Feels Like 68 °F
N
13
Wind Variable Wind from NNW

Tomorrow is forecast to be nearly the same temperature as today.

Today
High -- | Low -- °F
--% Chance of Precip.
Yesterday
High -- | Low -- °F
Precip. -- in
6:28 AM 10:15 PM
Full, 98% visible
Pressure 29.95 in
Visibility 6.2 miles
Clouds Scattered Clouds 3100 ft
Mostly Cloudy 3800 ft
Dew Point 54 °F
Humidity 60%
Rainfall 0.00 in
Snow Depth Not available.
UV 4 out of 12
Pollen Not available.
Air Quality Not available.
Flu Activity Not available.
METAR LFRJ 131500Z AUTO 33011KT 300V360 9999 SCT031 BKN038 20/12 Q1014

More Conditions Fewer Conditions

Pressure 29.95 in
Visibility 6.2 miles
Clouds Scattered Clouds 3100 ft
Mostly Cloudy 3800 ft
Dew Point 54 °F
Humidity 60%
Rainfall 0.00 in
Snow Depth Not available.
UV 4 out of 12
Pollen Not available.
Air Quality Not available.
Flu Activity Not available.
METAR LFRJ 131500Z AUTO 33011KT 300V360 9999 SCT031 BKN038 20/12 Q1014

More Conditions Fewer Conditions

10-Day Weather Forecast

Almanac

Astronomy

Jul. 13, 2014 Rise Set
Actual Time 6:28 AM CEST 10:15 PM CEST
Civil Twilight 5:48 AM CEST 10:55 PM CEST
Nautical Twilight 4:52 AM CEST 11:50 PM CEST
Astronomical Twilight 3:30 AM CEST 1:11 AM CEST
Moon 10:39 PM CEST 7:52 AM CEST
Length of Visible Light 17h 07m
Length of Day
15h 47m
Tomorrow will be 1m 47s shorter.
Full, 98% of the Moon is Illuminated
Today
Full
Jul 18
Last Quarter
Jul 26
New
Aug 3
First Quarter
Aug 10
Full

Today's Extremes

Country Highs Country Lows

Community

WunderPhotos

Upload Photos

1,733,251 photos uploaded!

Nearby

Snow Depth

Not available.

Earthquake Activity

City Distance Mag. Time & Date
No recent earthquake activity has been reported nearby.
Minimum magnitude displayed is 2.5.

Coastal Water Temperatures

Place Temperature
No Stations Reporting

Nearby Weather Stations

Station Location Temp. Heat Index Dew Point Humidity Wind Precip. Elev Updated Type
Loperhet (Dominique JAN), Loperhet 74.8 °F 77 °F 59 °F 57% WNW  at  5.6 mph 0.00 in / hr 259 ft 5:15 PM CEST Normal
Plouguerneau - Lienen, Plouguerneau 67.6 °F - 59 °F 74% NW  at  8.0 mph - / hr 36 ft 5:14 PM CEST Normal

Show More Stations Show Fewer Stations